createdAt,value
2018-03-21T00:00:37.915Z,1024.30
2018-03-21T00:01:37.865Z,1024.28
2018-03-21T00:02:37.820Z,1024.24
2018-03-21T00:03:37.768Z,1024.29
2018-03-21T00:04:37.714Z,1024.21
2018-03-21T00:05:37.664Z,1024.21
2018-03-21T00:06:37.613Z,1024.23
2018-03-21T00:07:37.563Z,1024.30
2018-03-21T00:08:37.513Z,1024.23
2018-03-21T00:09:37.467Z,1024.29
2018-03-21T00:10:37.415Z,1024.31
2018-03-21T00:11:37.362Z,1024.31
2018-03-21T00:12:37.317Z,1024.36
2018-03-21T00:13:37.262Z,1024.33
2018-03-21T00:14:37.211Z,1024.37
2018-03-21T00:15:37.204Z,1024.36
2018-03-21T00:16:37.111Z,1024.39
2018-03-21T00:17:37.064Z,1024.38
2018-03-21T00:18:37.009Z,1024.43
2018-03-21T00:19:36.960Z,1024.41
2018-03-21T00:20:36.910Z,1024.42
2018-03-21T00:21:36.860Z,1024.43
2018-03-21T00:22:36.808Z,1024.44
2018-03-21T00:23:36.760Z,1024.46
2018-03-21T00:24:36.709Z,1024.47
2018-03-21T00:25:36.659Z,1024.51
2018-03-21T00:26:36.608Z,1024.48
2018-03-21T00:27:36.558Z,1024.56
2018-03-21T00:28:36.507Z,1024.54
2018-03-21T00:29:36.462Z,1024.55
2018-03-21T00:30:36.406Z,1024.57
2018-03-21T00:31:36.359Z,1024.56
2018-03-21T00:32:36.310Z,1024.60
2018-03-21T00:33:36.256Z,1024.56
2018-03-21T00:34:36.212Z,1024.54
2018-03-21T00:35:36.155Z,1024.54
2018-03-21T00:36:36.105Z,1024.51
2018-03-21T00:37:36.055Z,1024.53
2018-03-21T00:38:36.003Z,1024.53
2018-03-21T00:39:35.952Z,1024.44
2018-03-21T00:40:35.907Z,1024.52
2018-03-21T00:41:35.855Z,1024.54
2018-03-21T00:42:35.803Z,1024.55
2018-03-21T00:43:35.753Z,1024.54
2018-03-21T00:44:35.700Z,1024.55
2018-03-21T00:45:35.663Z,1024.56
2018-03-21T00:46:35.603Z,1024.51
2018-03-21T00:47:35.565Z,1024.53
2018-03-21T00:48:35.502Z,1024.56
2018-03-21T00:49:35.461Z,1024.52
2018-03-21T00:50:35.403Z,1024.54
2018-03-21T00:51:35.347Z,1024.55
2018-03-21T00:52:35.301Z,1024.52
2018-03-21T00:53:35.247Z,1024.55
2018-03-21T00:54:35.198Z,1024.56
2018-03-21T00:55:35.145Z,1024.53
2018-03-21T00:56:35.094Z,1024.52
2018-03-21T00:57:35.046Z,1024.55
2018-03-21T00:58:34.992Z,1024.58
2018-03-21T00:59:34.951Z,1024.51
2018-03-21T01:00:34.893Z,1024.58
2018-03-21T01:01:34.843Z,1024.56
2018-03-21T01:02:34.791Z,1024.58
2018-03-21T01:03:34.740Z,1024.57
2018-03-21T01:04:34.690Z,1024.61
2018-03-21T01:05:34.641Z,1024.58
2018-03-21T01:06:34.588Z,1024.55
2018-03-21T01:07:34.542Z,1024.56
2018-03-21T01:08:34.492Z,1024.56
2018-03-21T01:09:34.440Z,1024.52
2018-03-21T01:10:34.388Z,1024.58
2018-03-21T01:11:34.338Z,1024.55
2018-03-21T01:12:34.286Z,1024.57
2018-03-21T01:13:34.237Z,1024.55
2018-03-21T01:14:34.185Z,1024.55
2018-03-21T01:15:34.140Z,1024.58
2018-03-21T01:16:34.085Z,1024.54
2018-03-21T01:17:34.038Z,1024.54
2018-03-21T01:18:33.986Z,1024.53
2018-03-21T01:19:33.939Z,1024.54
2018-03-21T01:20:33.882Z,1024.57
2018-03-21T01:21:33.833Z,1024.61
2018-03-21T01:22:33.782Z,1024.54
2018-03-21T01:23:33.728Z,1024.60
2018-03-21T01:24:33.679Z,1024.59
2018-03-21T01:25:33.629Z,1024.60
2018-03-21T01:26:33.578Z,1024.58
2018-03-21T01:27:33.525Z,1024.59
2018-03-21T01:28:33.480Z,1024.59
2018-03-21T01:29:33.424Z,1024.63
2018-03-21T01:30:33.377Z,1024.57
2018-03-21T01:31:33.321Z,1024.62
2018-03-21T01:32:33.273Z,1024.61
2018-03-21T01:33:33.226Z,1024.66
2018-03-21T01:34:33.169Z,1024.62
2018-03-21T01:35:33.120Z,1024.63
2018-03-21T01:36:33.077Z,1024.64
2018-03-21T01:37:33.026Z,1024.61
2018-03-21T01:38:32.969Z,1024.62
2018-03-21T01:39:32.920Z,1024.58
2018-03-21T01:40:32.865Z,1024.59
2018-03-21T01:41:32.820Z,1024.58
2018-03-21T01:42:32.763Z,1024.55
2018-03-21T01:43:32.713Z,1024.57
2018-03-21T01:44:32.661Z,1024.55
2018-03-21T01:45:32.612Z,1024.56
2018-03-21T01:46:32.559Z,1024.56
2018-03-21T01:47:32.516Z,1024.56
2018-03-21T01:48:32.459Z,1024.58
2018-03-21T01:49:32.411Z,1024.59
2018-03-21T01:50:32.359Z,1024.56
2018-03-21T01:51:32.306Z,1024.59
2018-03-21T01:52:32.257Z,1024.58
2018-03-21T01:53:32.207Z,1024.61
2018-03-21T01:54:32.157Z,1024.63
2018-03-21T01:55:32.104Z,1024.63
2018-03-21T01:56:32.055Z,1024.60
2018-03-21T01:57:32.002Z,1024.64
2018-03-21T01:58:31.950Z,1024.63
2018-03-21T01:59:31.898Z,1024.62
2018-03-21T02:00:31.859Z,1024.62
2018-03-21T02:01:31.808Z,1024.62
2018-03-21T02:02:31.760Z,1024.63
2018-03-21T02:03:31.698Z,1024.61
2018-03-21T02:04:31.647Z,1024.60
2018-03-21T02:05:31.597Z,1024.58
2018-03-21T02:06:31.547Z,1024.58
2018-03-21T02:07:31.498Z,1024.57
2018-03-21T02:08:31.440Z,1024.55
2018-03-21T02:09:31.394Z,1024.56
2018-03-21T02:10:31.340Z,1024.53
2018-03-21T02:11:31.289Z,1024.55
2018-03-21T02:12:31.239Z,1024.55
2018-03-21T02:13:31.189Z,1024.56
2018-03-21T02:14:31.136Z,1024.55
2018-03-21T02:15:31.085Z,1024.58
2018-03-21T02:16:31.034Z,1024.53
2018-03-21T02:17:30.988Z,1024.60
2018-03-21T02:18:30.931Z,1024.61
2018-03-21T02:19:30.883Z,1024.63
2018-03-21T02:20:30.830Z,1024.65
2018-03-21T02:21:30.781Z,1024.65
2018-03-21T02:22:30.727Z,1024.66
2018-03-21T02:23:30.678Z,1024.71
2018-03-21T02:24:30.624Z,1024.66
2018-03-21T02:25:30.573Z,1024.68
2018-03-21T02:26:30.524Z,1024.66
2018-03-21T02:27:30.473Z,1024.68
2018-03-21T02:28:30.423Z,1024.68
2018-03-21T02:29:30.372Z,1024.69
2018-03-21T02:30:30.329Z,1024.71
2018-03-21T02:31:30.275Z,1024.70
2018-03-21T02:32:30.219Z,1024.73
2018-03-21T02:33:30.171Z,1024.77
2018-03-21T02:34:30.114Z,1024.77
2018-03-21T02:35:30.064Z,1024.71
2018-03-21T02:36:30.012Z,1024.79
2018-03-21T02:37:29.968Z,1024.75
2018-03-21T02:38:29.910Z,1024.76
2018-03-21T02:39:29.861Z,1024.74
2018-03-21T02:40:29.811Z,1024.82
2018-03-21T02:41:29.760Z,1024.78
2018-03-21T02:42:29.710Z,1024.81
2018-03-21T02:43:29.658Z,1024.79
2018-03-21T02:44:29.603Z,1024.83
2018-03-21T02:45:29.557Z,1024.84
2018-03-21T02:46:29.502Z,1024.86
2018-03-21T02:47:29.451Z,1024.88
2018-03-21T02:48:29.400Z,1024.84
2018-03-21T02:49:29.349Z,1024.86
2018-03-21T02:50:29.301Z,1024.86
2018-03-21T02:51:29.247Z,1024.86
2018-03-21T02:52:29.197Z,1024.88
2018-03-21T02:53:29.151Z,1024.86
2018-03-21T02:54:29.092Z,1024.85
2018-03-21T02:55:29.043Z,1024.89
2018-03-21T02:56:28.990Z,1024.85
2018-03-21T02:57:28.940Z,1024.89
2018-03-21T02:58:28.895Z,1024.89
2018-03-21T02:59:28.840Z,1024.84
2018-03-21T03:00:28.788Z,1024.87
2018-03-21T03:01:28.737Z,1024.92
2018-03-21T03:02:28.683Z,1024.92
2018-03-21T03:03:28.634Z,1024.88
2018-03-21T03:04:28.592Z,1024.87
2018-03-21T03:05:28.529Z,1024.86
2018-03-21T03:06:28.490Z,1024.85
2018-03-21T03:07:28.429Z,1024.82
2018-03-21T03:08:28.394Z,1024.81
2018-03-21T03:09:28.353Z,1024.79
2018-03-21T03:10:28.274Z,1024.79
2018-03-21T03:11:28.220Z,1024.82
2018-03-21T03:12:28.183Z,1024.82
2018-03-21T03:13:28.153Z,1024.84
2018-03-21T03:14:28.075Z,1024.82
2018-03-21T03:15:28.017Z,1024.81
2018-03-21T03:16:27.965Z,1024.84
2018-03-21T03:17:27.914Z,1024.82
2018-03-21T03:18:27.861Z,1024.86
2018-03-21T03:19:27.821Z,1024.90
2018-03-21T03:20:27.759Z,1024.96
2018-03-21T03:21:27.709Z,1024.95
2018-03-21T03:22:27.656Z,1024.99
2018-03-21T03:23:27.607Z,1024.96
2018-03-21T03:24:27.555Z,1024.98
2018-03-21T03:25:27.503Z,1024.98
2018-03-21T03:26:27.454Z,1024.99
2018-03-21T03:27:27.400Z,1024.95
2018-03-21T03:28:27.354Z,1024.97
2018-03-21T03:29:27.320Z,1024.98
2018-03-21T03:30:27.249Z,1025.03
2018-03-21T03:31:27.198Z,1024.98
2018-03-21T03:32:27.144Z,1024.99
2018-03-21T03:33:27.092Z,1024.99
2018-03-21T03:34:27.039Z,1025.00
2018-03-21T03:35:27.000Z,1025.02
2018-03-21T03:36:26.947Z,1024.99
2018-03-21T03:37:26.887Z,1025.01
2018-03-21T03:38:26.836Z,1025.02
2018-03-21T03:39:26.781Z,1025.01
2018-03-21T03:40:26.733Z,1025.00
2018-03-21T03:41:26.683Z,1025.00
2018-03-21T03:42:26.633Z,1025.00
2018-03-21T03:43:26.583Z,1024.99
2018-03-21T03:44:26.527Z,1024.95
2018-03-21T03:45:26.477Z,1024.96
2018-03-21T03:46:26.428Z,1024.98
2018-03-21T03:47:29.472Z,1024.96
2018-03-21T03:48:26.320Z,1024.98
2018-03-21T03:49:26.272Z,1024.99
2018-03-21T03:50:26.218Z,1024.98
2018-03-21T03:51:26.164Z,1024.99
2018-03-21T03:52:26.120Z,1025.03
2018-03-21T03:53:26.063Z,1024.99
2018-03-21T03:54:26.014Z,1025.03
2018-03-21T03:55:25.964Z,1025.03
2018-03-21T03:56:25.913Z,1025.02
2018-03-21T03:57:25.859Z,1024.98
2018-03-21T03:58:25.808Z,1025.03
2018-03-21T03:59:25.757Z,1025.00
2018-03-21T04:00:25.706Z,1025.02
2018-03-21T04:01:25.651Z,1025.01
2018-03-21T04:02:25.608Z,1025.01
2018-03-21T04:03:25.549Z,1025.04
2018-03-21T04:04:25.519Z,1025.05
2018-03-21T04:05:25.445Z,1025.07
2018-03-21T04:06:25.395Z,1025.06
2018-03-21T04:07:25.346Z,1025.10
2018-03-21T04:08:25.294Z,1025.08
2018-03-21T04:09:25.240Z,1025.06
2018-03-21T04:10:25.189Z,1025.07
2018-03-21T04:11:25.140Z,1025.09
2018-03-21T04:12:25.087Z,1025.12
2018-03-21T04:13:25.033Z,1025.11
2018-03-21T04:14:24.982Z,1025.08
2018-03-21T04:15:24.931Z,1025.09
2018-03-21T04:16:24.879Z,1025.07
2018-03-21T04:17:24.836Z,1025.08
2018-03-21T04:18:24.777Z,1025.11
2018-03-21T04:19:24.731Z,1025.09
2018-03-21T04:20:24.674Z,1025.10
2018-03-21T04:21:24.621Z,1025.10
2018-03-21T04:22:24.573Z,1025.10
2018-03-21T04:23:24.639Z,1025.11
2018-03-21T04:24:24.467Z,1025.08
2018-03-21T04:25:24.419Z,1025.10
2018-03-21T04:26:24.365Z,1025.09
2018-03-21T04:27:24.313Z,1025.09
2018-03-21T04:28:24.261Z,1025.10
2018-03-21T04:29:24.211Z,1025.12
2018-03-21T04:30:24.161Z,1025.12
2018-03-21T04:31:24.105Z,1025.18
2018-03-21T04:32:24.056Z,1025.16
2018-03-21T04:33:24.004Z,1025.23
2018-03-21T04:34:23.954Z,1025.18
2018-03-21T04:35:23.900Z,1025.14
2018-03-21T04:36:23.852Z,1025.16
2018-03-21T04:37:23.799Z,1025.15
2018-03-21T04:38:23.745Z,1025.17
2018-03-21T04:39:23.699Z,1025.16
2018-03-21T04:40:23.646Z,1025.17
2018-03-21T04:41:23.597Z,1025.16
2018-03-21T04:42:23.539Z,1025.16
2018-03-21T04:43:23.502Z,1025.13
2018-03-21T04:44:23.438Z,1025.14
2018-03-21T04:45:23.386Z,1025.12
2018-03-21T04:46:23.334Z,1025.15
2018-03-21T04:47:23.293Z,1025.17
2018-03-21T04:48:23.236Z,1025.15
2018-03-21T04:49:23.180Z,1025.18
2018-03-21T04:50:23.146Z,1025.16
2018-03-21T04:51:23.075Z,1025.17
2018-03-21T04:52:23.024Z,1025.17
2018-03-21T04:53:22.974Z,1025.18
2018-03-21T04:54:22.936Z,1025.17
2018-03-21T04:55:22.878Z,1025.20
2018-03-21T04:56:22.820Z,1025.16
2018-03-21T04:57:22.765Z,1025.16
2018-03-21T04:58:22.714Z,1025.15
2018-03-21T04:59:22.662Z,1025.13
2018-03-21T05:00:22.613Z,1025.11
2018-03-21T05:01:22.561Z,1025.13
2018-03-21T05:02:22.511Z,1025.09
2018-03-21T05:03:22.458Z,1025.10
2018-03-21T05:04:22.412Z,1024.97
2018-03-21T05:05:22.358Z,1025.08
2018-03-21T05:06:22.302Z,1025.11
2018-03-21T05:07:22.253Z,1025.10
2018-03-21T05:08:22.231Z,1025.08
2018-03-21T05:09:22.154Z,1025.09
2018-03-21T05:10:22.101Z,1025.08
2018-03-21T05:11:22.049Z,1025.09
2018-03-21T05:12:22.000Z,1025.07
2018-03-21T05:13:21.947Z,1025.10
2018-03-21T05:14:21.896Z,1025.13
2018-03-21T05:15:21.851Z,1025.10
2018-03-21T05:16:21.792Z,1025.10
2018-03-21T05:17:21.740Z,1025.08
2018-03-21T05:18:21.698Z,1025.09
2018-03-21T05:19:21.655Z,1025.09
2018-03-21T05:20:21.592Z,1025.10
2018-03-21T05:21:21.537Z,1025.09
2018-03-21T05:22:21.489Z,1025.06
2018-03-21T05:23:21.432Z,1025.05
2018-03-21T05:24:21.448Z,1025.08
2018-03-21T05:25:21.335Z,1025.02
2018-03-21T05:26:21.281Z,1025.00
2018-03-21T05:27:21.234Z,1024.97
2018-03-21T05:28:21.177Z,1024.99
2018-03-21T05:29:21.128Z,1024.99
2018-03-21T05:30:21.075Z,1025.00
2018-03-21T05:31:21.025Z,1025.05
2018-03-21T05:32:20.972Z,1025.05
2018-03-21T05:33:20.924Z,1025.02
2018-03-21T05:34:20.870Z,1025.10
2018-03-21T05:35:20.820Z,1025.09
2018-03-21T05:36:20.769Z,1025.04
2018-03-21T05:37:20.718Z,1025.05
2018-03-21T05:38:20.668Z,1025.07
2018-03-21T05:39:20.617Z,1025.06
2018-03-21T05:40:20.564Z,1025.07
2018-03-21T05:41:20.530Z,1025.07
2018-03-21T05:42:20.462Z,1025.05
2018-03-21T05:43:20.409Z,1025.05
2018-03-21T05:44:20.361Z,1025.01
2018-03-21T05:45:20.313Z,1025.05
2018-03-21T05:46:20.257Z,1025.05
2018-03-21T05:47:20.209Z,1025.06
2018-03-21T05:48:20.158Z,1025.10
2018-03-21T05:49:20.104Z,1025.12
2018-03-21T05:50:20.055Z,1025.14
2018-03-21T05:51:20.004Z,1025.13
2018-03-21T05:52:19.952Z,1025.17
2018-03-21T05:53:19.903Z,1025.22
2018-03-21T05:54:19.848Z,1025.16
2018-03-21T05:55:19.804Z,1025.19
2018-03-21T05:56:19.748Z,1025.16
2018-03-21T05:57:19.698Z,1025.17
2018-03-21T05:58:19.645Z,1025.16
2018-03-21T05:59:19.596Z,1025.16
2018-03-21T06:00:19.544Z,1025.20
2018-03-21T06:01:19.493Z,1025.20
2018-03-21T06:02:19.478Z,1025.21
2018-03-21T06:03:19.391Z,1025.22
2018-03-21T06:04:19.341Z,1025.28
2018-03-21T06:05:19.292Z,1025.25
2018-03-21T06:06:19.240Z,1025.29
2018-03-21T06:07:19.186Z,1025.32
2018-03-21T06:08:19.146Z,1025.34
2018-03-21T06:09:19.088Z,1025.40
2018-03-21T06:10:19.047Z,1025.42
2018-03-21T06:11:19.020Z,1025.43
2018-03-21T06:12:18.944Z,1025.48
2018-03-21T06:13:18.885Z,1025.48
2018-03-21T06:14:18.838Z,1025.47
2018-03-21T06:15:18.786Z,1025.46
2018-03-21T06:16:18.731Z,1025.45
2018-03-21T06:17:18.684Z,1025.50
2018-03-21T06:18:18.632Z,1025.50
2018-03-21T06:19:18.582Z,1025.52
2018-03-21T06:20:18.531Z,1025.50
2018-03-21T06:21:18.479Z,1025.52
2018-03-21T06:22:18.426Z,1025.51
2018-03-21T06:23:18.380Z,1025.48
2018-03-21T06:24:18.328Z,1025.56
2018-03-21T06:25:18.280Z,1025.55
2018-03-21T06:26:18.223Z,1025.59
2018-03-21T06:27:18.180Z,1025.63
2018-03-21T06:28:18.125Z,1025.67
2018-03-21T06:29:18.074Z,1025.65
2018-03-21T06:30:18.023Z,1025.66
2018-03-21T06:31:17.976Z,1025.62
2018-03-21T06:32:17.921Z,1025.58
2018-03-21T06:33:17.878Z,1025.62
2018-03-21T06:34:17.821Z,1025.68
2018-03-21T06:35:17.772Z,1025.68
2018-03-21T06:36:17.727Z,1025.66
2018-03-21T06:37:17.669Z,1025.67
2018-03-21T06:38:17.649Z,1025.64
2018-03-21T06:39:17.571Z,1025.63
2018-03-21T06:40:17.522Z,1025.66
2018-03-21T06:41:17.471Z,1025.68
2018-03-21T06:42:17.418Z,1025.67
2018-03-21T06:43:17.420Z,1025.65
2018-03-21T06:44:17.317Z,1025.71
2018-03-21T06:45:17.268Z,1025.69
2018-03-21T06:46:17.220Z,1025.71
2018-03-21T06:47:17.166Z,1025.69
2018-03-21T06:48:17.116Z,1025.70
2018-03-21T06:49:17.069Z,1025.71
2018-03-21T06:50:17.022Z,1025.72
2018-03-21T06:51:16.969Z,1025.74
2018-03-21T06:52:16.916Z,1025.75
2018-03-21T06:53:16.869Z,1025.77
2018-03-21T06:54:16.817Z,1025.76
2018-03-21T06:55:16.768Z,1025.73
2018-03-21T06:56:16.718Z,1025.72
2018-03-21T06:57:16.666Z,1025.79
2018-03-21T06:58:16.624Z,1025.78
2018-03-21T06:59:16.567Z,1025.81
2018-03-21T07:00:16.517Z,1025.79
2018-03-21T07:01:16.469Z,1025.79
2018-03-21T07:02:16.416Z,1025.80
2018-03-21T07:03:16.368Z,1025.80
2018-03-21T07:04:16.317Z,1025.85
2018-03-21T07:05:16.268Z,1025.86
2018-03-21T07:06:16.220Z,1025.83
2018-03-21T07:07:16.175Z,1025.85
2018-03-21T07:08:16.120Z,1025.86
2018-03-21T07:09:16.069Z,1025.89
2018-03-21T07:10:16.021Z,1025.90
2018-03-21T07:11:15.969Z,1025.84
2018-03-21T07:12:15.923Z,1025.84
2018-03-21T07:13:15.871Z,1025.85
2018-03-21T07:14:15.823Z,1025.94
2018-03-21T07:15:15.775Z,1025.86
2018-03-21T07:16:15.724Z,1025.86
2018-03-21T07:17:15.673Z,1025.89
2018-03-21T07:18:15.624Z,1025.90
2018-03-21T07:19:15.576Z,1025.92
2018-03-21T07:20:15.525Z,1025.91
2018-03-21T07:21:15.486Z,1025.93
2018-03-21T07:22:15.427Z,1025.94
2018-03-21T07:23:15.380Z,1025.90
2018-03-21T07:24:15.333Z,1025.83
2018-03-21T07:25:15.280Z,1025.78
2018-03-21T07:26:15.233Z,1025.79
2018-03-21T07:27:15.177Z,1025.79
2018-03-21T07:28:15.129Z,1025.85
2018-03-21T07:29:15.079Z,1025.89
2018-03-21T07:30:15.030Z,1025.90
2018-03-21T07:31:14.986Z,1025.85
2018-03-21T07:32:14.935Z,1025.84
2018-03-21T07:33:14.880Z,1025.86
2018-03-21T07:34:14.830Z,1025.90
2018-03-21T07:35:14.781Z,1025.86
2018-03-21T07:36:14.734Z,1025.90
2018-03-21T07:37:14.688Z,1025.92
2018-03-21T07:38:14.633Z,1025.90
2018-03-21T07:39:14.585Z,1025.86
2018-03-21T07:40:14.536Z,1025.86
2018-03-21T07:41:14.487Z,1025.86
2018-03-21T07:42:14.436Z,1025.80
2018-03-21T07:43:14.386Z,1025.81
2018-03-21T07:44:14.341Z,1025.80
2018-03-21T07:45:14.289Z,1025.83
2018-03-21T07:46:14.239Z,1025.86
2018-03-21T07:47:14.191Z,1025.91
2018-03-21T07:48:14.142Z,1025.90
2018-03-21T07:49:14.095Z,1025.95
2018-03-21T07:50:14.043Z,1025.94
2018-03-21T07:51:13.994Z,1025.96
2018-03-21T07:52:13.946Z,1026.03
2018-03-21T07:53:13.895Z,1025.96
2018-03-21T07:54:13.847Z,1025.97
2018-03-21T07:55:13.798Z,1026.05
2018-03-21T07:56:13.748Z,1026.06
2018-03-21T07:57:13.705Z,1026.06
2018-03-21T07:58:13.654Z,1026.10
2018-03-21T07:59:13.604Z,1026.08
2018-03-21T08:00:13.551Z,1026.07
2018-03-21T08:01:13.503Z,1026.08
2018-03-21T08:02:13.489Z,1026.12
2018-03-21T08:03:13.407Z,1026.13
2018-03-21T08:04:13.357Z,1026.13
2018-03-21T08:05:13.307Z,1026.16
2018-03-21T08:06:13.259Z,1026.18
2018-03-21T08:07:13.208Z,1026.16
2018-03-21T08:08:13.166Z,1026.16
2018-03-21T08:09:13.115Z,1026.23
2018-03-21T08:10:13.067Z,1026.25
2018-03-21T08:11:13.014Z,1026.28
2018-03-21T08:12:12.967Z,1026.27
2018-03-21T08:13:12.917Z,1026.28
2018-03-21T08:14:12.871Z,1026.29
2018-03-21T08:15:12.820Z,1026.25
2018-03-21T08:16:12.772Z,1026.27
2018-03-21T08:17:12.721Z,1026.26
2018-03-21T08:18:12.674Z,1026.27
2018-03-21T08:19:12.624Z,1026.29
2018-03-21T08:20:12.577Z,1026.34
2018-03-21T08:21:12.527Z,1026.34
2018-03-21T08:22:12.478Z,1026.36
2018-03-21T08:23:12.430Z,1026.37
2018-03-21T08:24:12.391Z,1026.36
2018-03-21T08:25:12.337Z,1026.34
2018-03-21T08:26:12.284Z,1026.32
2018-03-21T08:27:12.236Z,1026.34
2018-03-21T08:28:12.189Z,1026.35
2018-03-21T08:29:12.142Z,1026.33
2018-03-21T08:30:12.092Z,1026.33
2018-03-21T08:31:12.042Z,1026.31
2018-03-21T08:32:11.998Z,1026.36
2018-03-21T08:33:11.945Z,1026.33
2018-03-21T08:34:11.902Z,1026.32
2018-03-21T08:35:11.847Z,1026.32
2018-03-21T08:36:11.799Z,1026.31
2018-03-21T08:37:11.752Z,1026.33
2018-03-21T08:38:11.704Z,1026.28
2018-03-21T08:39:11.655Z,1026.29
2018-03-21T08:40:11.608Z,1026.29
2018-03-21T08:41:11.570Z,1026.26
2018-03-21T08:42:11.513Z,1026.26
2018-03-21T08:43:11.462Z,1026.26
2018-03-21T08:44:11.417Z,1026.27
2018-03-21T08:45:11.368Z,1026.25
2018-03-21T08:46:11.321Z,1026.29
2018-03-21T08:47:11.276Z,1026.28
2018-03-21T08:48:11.245Z,1026.29
2018-03-21T08:49:11.179Z,1026.33
2018-03-21T08:50:11.124Z,1026.34
2018-03-21T08:51:11.077Z,1026.32
2018-03-21T08:52:11.029Z,1026.37
2018-03-21T08:53:10.979Z,1026.36
2018-03-21T08:54:10.932Z,1026.41
2018-03-21T08:55:10.884Z,1026.40
2018-03-21T08:56:10.838Z,1026.41
2018-03-21T08:57:10.788Z,1026.38
2018-03-21T08:58:10.738Z,1026.35
2018-03-21T08:59:10.690Z,1026.38
2018-03-21T09:00:10.644Z,1026.37
2018-03-21T09:01:10.596Z,1026.40
2018-03-21T09:02:10.546Z,1026.38
2018-03-21T09:03:10.496Z,1026.39
2018-03-21T09:04:10.450Z,1026.39
2018-03-21T09:05:10.401Z,1026.38
2018-03-21T09:06:10.355Z,1026.38
2018-03-21T09:07:10.308Z,1026.39
2018-03-21T09:08:10.260Z,1026.41
2018-03-21T09:09:10.209Z,1026.45
2018-03-21T09:10:10.158Z,1026.46
2018-03-21T09:11:10.113Z,1026.47
2018-03-21T09:12:10.068Z,1026.48
2018-03-21T09:13:10.018Z,1026.48
2018-03-21T09:14:09.970Z,1026.51
2018-03-21T09:15:09.921Z,1026.48
2018-03-21T09:16:09.872Z,1026.55
2018-03-21T09:17:09.822Z,1026.52
2018-03-21T09:18:09.773Z,1026.52
2018-03-21T09:19:09.733Z,1026.53
2018-03-21T09:20:09.682Z,1026.55
2018-03-21T09:21:09.632Z,1026.56
2018-03-21T09:22:09.585Z,1026.54
2018-03-21T09:23:09.533Z,1026.55
2018-03-21T09:24:09.485Z,1026.50
2018-03-21T09:25:09.437Z,1026.50
2018-03-21T09:26:09.408Z,1026.49
2018-03-21T09:27:09.344Z,1026.50
2018-03-21T09:28:09.295Z,1026.49
2018-03-21T09:29:09.245Z,1026.48
2018-03-21T09:30:09.197Z,1026.50
2018-03-21T09:31:09.150Z,1026.51
2018-03-21T09:32:09.100Z,1026.54
2018-03-21T09:33:09.051Z,1026.54
2018-03-21T09:34:09.004Z,1026.54
2018-03-21T09:35:08.954Z,1026.54
2018-03-21T09:36:08.907Z,1026.45
2018-03-21T09:37:08.865Z,1026.49
2018-03-21T09:38:08.810Z,1026.51
2018-03-21T09:39:08.778Z,1026.48
2018-03-21T09:40:08.715Z,1026.47
2018-03-21T09:41:08.670Z,1026.46
2018-03-21T09:42:08.620Z,1026.43
2018-03-21T09:43:08.572Z,1026.44
2018-03-21T09:44:08.532Z,1026.47
2018-03-21T09:45:08.474Z,1026.46
2018-03-21T09:46:08.425Z,1026.48
2018-03-21T09:47:08.380Z,1026.49
2018-03-21T09:48:08.332Z,1026.47
2018-03-21T09:49:08.283Z,1026.46
2018-03-21T09:50:08.235Z,1026.46
2018-03-21T09:51:08.184Z,1026.49
2018-03-21T09:52:08.138Z,1026.49
2018-03-21T09:53:08.088Z,1026.46
2018-03-21T09:54:08.039Z,1026.48
2018-03-21T09:55:07.992Z,1026.46
2018-03-21T09:56:07.944Z,1026.44
2018-03-21T09:57:07.898Z,1026.40
2018-03-21T09:58:07.846Z,1026.39
2018-03-21T09:59:07.800Z,1026.40
2018-03-21T10:00:07.752Z,1026.37
2018-03-21T10:01:07.732Z,1026.43
2018-03-21T10:02:07.657Z,1026.39
2018-03-21T10:03:07.609Z,1026.42
2018-03-21T10:04:07.559Z,1026.41
2018-03-21T10:05:07.513Z,1026.38
2018-03-21T10:06:07.464Z,1026.41
2018-03-21T10:07:07.421Z,1026.36
2018-03-21T10:08:07.370Z,1026.38
2018-03-21T10:09:07.323Z,1026.38
2018-03-21T10:10:07.277Z,1026.35
2018-03-21T10:11:07.227Z,1026.32
2018-03-21T10:12:07.178Z,1026.37
2018-03-21T10:13:07.129Z,1026.37
2018-03-21T10:14:07.082Z,1026.37
2018-03-21T10:15:07.036Z,1026.32
2018-03-21T10:16:07.001Z,1026.36
2018-03-21T10:17:06.947Z,1026.30
2018-03-21T10:18:06.895Z,1026.34
2018-03-21T10:19:06.844Z,1026.31
2018-03-21T10:20:06.801Z,1026.32
2018-03-21T10:21:06.754Z,1026.36
2018-03-21T10:22:06.702Z,1026.32
2018-03-21T10:23:06.656Z,1026.33
2018-03-21T10:24:06.609Z,1026.36
2018-03-21T10:25:06.558Z,1026.34
2018-03-21T10:26:06.509Z,1026.31
2018-03-21T10:27:06.463Z,1026.34
2018-03-21T10:28:06.416Z,1026.30
2018-03-21T10:29:06.373Z,1026.30
2018-03-21T10:30:06.322Z,1026.28
2018-03-21T10:31:06.272Z,1026.27
2018-03-21T10:32:06.224Z,1026.31
2018-03-21T10:33:06.177Z,1026.28
2018-03-21T10:34:06.141Z,1026.31
2018-03-21T10:35:06.083Z,1026.29
2018-03-21T10:36:06.037Z,1026.31
2018-03-21T10:37:05.988Z,1026.31
2018-03-21T10:38:05.940Z,1026.32
2018-03-21T10:39:05.894Z,1026.34
2018-03-21T10:40:05.851Z,1026.34
2018-03-21T10:41:05.800Z,1026.33
2018-03-21T10:42:05.753Z,1026.35
2018-03-21T10:43:05.701Z,1026.37
2018-03-21T10:44:05.653Z,1026.37
2018-03-21T10:45:05.622Z,1026.42
2018-03-21T10:46:05.562Z,1026.45
2018-03-21T10:47:05.513Z,1026.50
2018-03-21T10:48:05.466Z,1026.50
2018-03-21T10:49:05.421Z,1026.51
2018-03-21T10:50:05.370Z,1026.59
2018-03-21T10:51:05.324Z,1026.50
2018-03-21T10:52:05.282Z,1026.54
2018-03-21T10:53:05.229Z,1026.50
2018-03-21T10:54:05.204Z,1026.52
2018-03-21T10:55:05.134Z,1026.52
2018-03-21T10:56:05.088Z,1026.59
2018-03-21T10:57:05.042Z,1026.57
2018-03-21T10:58:04.997Z,1026.58
2018-03-21T10:59:04.973Z,1026.58
2018-03-21T11:00:04.902Z,1026.57
2018-03-21T11:01:04.852Z,1026.54
2018-03-21T11:02:04.814Z,1026.58
2018-03-21T11:03:04.759Z,1026.59
2018-03-21T11:04:04.711Z,1026.52
2018-03-21T11:05:04.667Z,1026.55
2018-03-21T11:06:04.616Z,1026.51
2018-03-21T11:07:04.571Z,1026.51
2018-03-21T11:08:04.536Z,1026.49
2018-03-21T11:09:04.481Z,1026.50
2018-03-21T11:10:04.431Z,1026.48
2018-03-21T11:11:04.383Z,1026.48
2018-03-21T11:12:04.338Z,1026.50
2018-03-21T11:13:04.290Z,1026.46
2018-03-21T11:14:04.244Z,1026.50
2018-03-21T11:15:04.196Z,1026.47
2018-03-21T11:16:04.149Z,1026.49
2018-03-21T11:17:04.104Z,1026.47
2018-03-21T11:18:04.057Z,1026.41
2018-03-21T11:19:04.008Z,1026.43
2018-03-21T11:20:03.961Z,1026.41
2018-03-21T11:21:03.920Z,1026.43
2018-03-21T11:22:03.871Z,1026.40
2018-03-21T11:23:03.822Z,1026.40
2018-03-21T11:24:03.779Z,1026.46
2018-03-21T11:25:03.732Z,1026.44
2018-03-21T11:26:03.681Z,1026.41
2018-03-21T11:27:03.636Z,1026.48
2018-03-21T11:28:03.591Z,1026.41
2018-03-21T11:29:03.543Z,1026.40
2018-03-21T11:30:03.494Z,1026.35
2018-03-21T11:31:03.450Z,1026.38
2018-03-21T11:32:03.400Z,1026.35
2018-03-21T11:33:03.359Z,1026.34
2018-03-21T11:34:03.314Z,1026.31
2018-03-21T11:35:03.263Z,1026.32
2018-03-21T11:36:03.218Z,1026.34
2018-03-21T11:37:03.169Z,1026.34
2018-03-21T11:38:03.119Z,1026.34
2018-03-21T11:39:03.126Z,1026.32
2018-03-21T11:40:03.032Z,1026.31
2018-03-21T11:41:02.987Z,1026.30
2018-03-21T11:42:02.935Z,1026.34
2018-03-21T11:43:02.889Z,1026.31
2018-03-21T11:44:02.842Z,1026.31
2018-03-21T11:45:02.834Z,1026.33
2018-03-21T11:46:02.748Z,1026.28
2018-03-21T11:47:02.702Z,1026.31
2018-03-21T11:48:02.659Z,1026.29
2018-03-21T11:49:02.612Z,1026.24
2018-03-21T11:50:02.563Z,1026.23
2018-03-21T11:51:02.519Z,1026.28
2018-03-21T11:52:02.475Z,1026.28
2018-03-21T11:53:02.427Z,1026.26
2018-03-21T11:54:02.378Z,1026.27
2018-03-21T11:55:02.331Z,1026.26
2018-03-21T11:56:02.288Z,1026.24
2018-03-21T11:57:02.243Z,1026.26
2018-03-21T11:58:02.193Z,1026.26
2018-03-21T11:59:02.149Z,1026.14
2018-03-21T12:00:02.100Z,1026.17
2018-03-21T12:01:02.062Z,1026.11
2018-03-21T12:02:02.009Z,1026.13
2018-03-21T12:03:01.964Z,1026.15
2018-03-21T12:04:01.920Z,1026.15
2018-03-21T12:05:01.877Z,1026.13